createdAt,value
2018-02-01T00:05:30.403Z,9.90
2018-02-01T00:08:00.230Z,8.70
2018-02-01T00:18:26.320Z,7.55
2018-02-01T00:23:29.205Z,7.57
2018-02-01T00:26:06.483Z,7.32
2018-02-01T00:28:38.101Z,8.25
2018-02-01T00:31:09.077Z,8.00
2018-02-01T00:33:40.911Z,6.97
2018-02-01T00:36:21.747Z,6.37
2018-02-01T00:38:50.276Z,6.35
2018-02-01T00:41:18.778Z,6.60
2018-02-01T00:43:53.465Z,6.62
2018-02-01T00:46:25.986Z,6.85
2018-02-01T00:48:55.062Z,7.12
2018-02-01T00:51:25.406Z,8.32
2018-02-01T00:53:54.243Z,7.53
2018-02-01T00:56:23.622Z,7.80
2018-02-01T00:58:58.369Z,8.50
2018-02-01T01:01:28.734Z,7.35
2018-02-01T01:06:35.692Z,7.65
2018-02-01T01:09:07.896Z,8.45
2018-02-01T01:11:39.692Z,8.55
2018-02-01T01:14:13.794Z,8.60
2018-02-01T01:16:42.861Z,8.80
2018-02-01T01:19:16.023Z,9.82
2018-02-01T01:21:47.578Z,9.80
2018-02-01T01:26:51.852Z,9.63
2018-02-01T01:29:26.650Z,10.57
2018-02-01T01:32:00.036Z,10.05
2018-02-01T01:34:28.696Z,10.77
2018-02-01T01:36:59.852Z,9.85
2018-02-01T01:39:33.731Z,10.35
2018-02-01T01:42:02.692Z,10.90
2018-02-01T01:44:31.538Z,10.85
2018-02-01T01:47:04.336Z,9.75
2018-02-01T01:54:43.396Z,10.38
2018-02-01T01:57:12.960Z,8.23
2018-02-01T01:59:46.302Z,10.55
2018-02-01T02:02:22.098Z,8.32
2018-02-01T02:04:52.049Z,9.52
2018-02-01T02:07:23.515Z,7.55
2018-02-01T02:09:54.131Z,7.55
2018-02-01T02:12:28.858Z,7.07
2018-02-01T02:15:01.307Z,6.53
2018-02-01T02:17:34.644Z,7.78
2018-02-01T02:20:04.428Z,7.40
2018-02-01T02:22:33.144Z,7.12
2018-02-01T02:25:02.653Z,7.00
2018-02-01T02:30:08.306Z,6.10
2018-02-01T02:32:37.853Z,7.20
2018-02-01T02:35:12.899Z,6.60
2018-02-01T02:37:41.705Z,7.00
2018-02-01T02:40:19.990Z,6.70
2018-02-01T02:42:54.315Z,5.62
2018-02-01T02:48:01.794Z,7.00
2018-02-01T02:50:30.677Z,6.80
2018-02-01T02:53:02.648Z,6.68
2018-02-01T02:55:30.489Z,6.60
2018-02-01T02:57:58.090Z,6.87
2018-02-01T03:00:27.441Z,7.28
2018-02-01T03:05:46.928Z,6.50
2018-02-01T03:08:19.290Z,5.45
2018-02-01T03:10:54.245Z,5.90
2018-02-01T03:13:28.570Z,6.80
2018-02-01T03:15:56.095Z,6.20
2018-02-01T03:18:26.357Z,5.25
2018-02-01T03:20:55.502Z,4.68
2018-02-01T03:23:25.678Z,5.10
2018-02-01T03:25:57.578Z,5.60
2018-02-01T03:28:31.537Z,5.35
2018-02-01T03:31:07.579Z,5.53
2018-02-01T03:33:41.403Z,5.32
2018-02-01T03:36:11.022Z,5.55
2018-02-01T03:38:40.962Z,5.87
2018-02-01T03:41:15.711Z,4.90
2018-02-01T03:43:44.038Z,4.50
2018-02-01T03:46:11.858Z,4.35
2018-02-01T03:48:46.109Z,4.43
2018-02-01T03:51:16.407Z,4.72
2018-02-01T03:53:46.910Z,4.60
2018-02-01T03:56:18.424Z,4.10
2018-02-01T03:58:47.853Z,4.53
2018-02-01T04:01:20.409Z,4.00
2018-02-01T04:03:51.890Z,3.70
2018-02-01T04:06:21.589Z,3.80
2018-02-01T04:08:57.819Z,5.85
2018-02-01T04:11:33.788Z,3.75
2018-02-01T04:14:05.956Z,4.70
2018-02-01T04:16:35.525Z,3.87
2018-02-01T04:19:03.365Z,3.67
2018-02-01T04:21:31.790Z,4.65
2018-02-01T04:24:00.551Z,4.30
2018-02-01T04:26:34.002Z,4.40
2018-02-01T04:29:02.339Z,4.62
2018-02-01T04:34:05.028Z,4.05
2018-02-01T04:36:33.054Z,5.00
2018-02-01T04:39:00.012Z,5.00
2018-02-01T04:41:27.724Z,4.82
2018-02-01T04:43:54.725Z,4.68
2018-02-01T04:46:22.460Z,4.72
2018-02-01T04:48:49.476Z,4.60
2018-02-01T04:51:17.400Z,5.47
2018-02-01T04:53:44.378Z,5.37
2018-02-01T04:56:11.315Z,5.37
2018-02-01T04:58:38.341Z,5.75
2018-02-01T05:01:06.103Z,5.50
2018-02-01T05:03:33.139Z,4.82
2018-02-01T05:06:00.105Z,5.97
2018-02-01T05:08:27.126Z,5.57
2018-02-01T05:10:54.917Z,5.95
2018-02-01T05:13:24.910Z,7.07
2018-02-01T05:15:53.618Z,6.30
2018-02-01T05:18:22.282Z,5.72
2018-02-01T05:20:53.302Z,6.40
2018-02-01T05:25:56.396Z,7.00
2018-02-01T05:28:31.482Z,6.57
2018-02-01T05:33:40.598Z,4.47
2018-02-01T05:36:08.891Z,5.35
2018-02-01T05:38:41.578Z,5.15
2018-02-01T05:41:10.661Z,5.93
2018-02-01T05:43:41.554Z,4.75
2018-02-01T05:46:16.178Z,5.35
2018-02-01T05:48:52.131Z,4.87
2018-02-01T05:51:25.886Z,5.53
2018-02-01T05:53:58.838Z,4.50
2018-02-01T05:56:35.591Z,4.85
2018-02-01T05:59:27.281Z,5.43
2018-02-01T06:08:02.269Z,5.32
2018-02-01T06:16:45.933Z,5.03
2018-02-01T06:19:12.897Z,5.78
2018-02-01T06:21:40.672Z,4.95
2018-02-01T06:24:11.319Z,5.40
2018-02-01T06:26:38.288Z,4.97
2018-02-01T06:39:44.541Z,4.93
2018-02-01T06:47:47.608Z,4.85
2018-02-01T06:50:14.427Z,5.00
2018-02-01T06:52:41.258Z,4.93
2018-02-01T06:55:08.839Z,4.07
2018-02-01T06:57:36.063Z,4.20
2018-02-01T07:00:02.993Z,5.00
2018-02-01T07:02:29.808Z,4.22
2018-02-01T07:04:56.577Z,4.80
2018-02-01T07:07:23.512Z,3.45
2018-02-01T07:09:50.324Z,4.03
2018-02-01T07:12:18.084Z,4.55
2018-02-01T07:14:46.193Z,5.12
2018-02-01T07:17:13.844Z,5.18
2018-02-01T07:19:41.437Z,4.97
2018-02-01T07:22:08.201Z,5.32
2018-02-01T07:24:35.032Z,4.85
2018-02-01T07:27:01.796Z,5.95
2018-02-01T07:29:28.624Z,4.90
2018-02-01T07:31:55.415Z,5.35
2018-02-01T07:34:31.214Z,4.15
2018-02-01T07:36:58.057Z,4.25
2018-02-01T07:39:24.851Z,4.53
2018-02-01T07:41:51.706Z,5.18
2018-02-01T07:44:19.344Z,4.07
2018-02-01T07:46:46.211Z,4.32
2018-02-01T07:49:12.985Z,4.50
2018-02-01T07:51:39.762Z,5.15
2018-02-01T07:54:07.272Z,3.80
2018-02-01T07:56:34.029Z,4.00
2018-02-01T07:59:00.842Z,4.10
2018-02-01T08:43:39.846Z,3.50
2018-02-01T08:46:07.820Z,4.00
2018-02-01T08:48:36.780Z,3.65
2018-02-01T08:51:16.101Z,2.40
2018-02-01T08:53:45.061Z,3.22
2018-02-01T08:56:13.555Z,3.17
2018-02-01T08:58:40.937Z,3.33
2018-02-01T09:01:11.296Z,3.33
2018-02-01T09:03:38.470Z,2.80
2018-02-01T09:06:06.905Z,3.50
2018-02-01T09:08:35.114Z,3.97
2018-02-01T09:11:08.143Z,2.70
2018-02-01T09:13:35.967Z,2.55
2018-02-01T09:16:03.096Z,3.53
2018-02-01T09:18:30.308Z,3.65
2018-02-01T09:20:57.363Z,3.55
2018-02-01T09:23:25.540Z,3.00
2018-02-01T09:25:53.657Z,3.05
2018-02-01T09:28:22.464Z,3.28
2018-02-01T09:30:50.341Z,3.40
2018-02-01T09:33:17.237Z,3.58
2018-02-01T09:35:44.266Z,3.45
2018-02-01T09:38:11.094Z,3.83
2018-02-01T09:40:38.036Z,3.58
2018-02-01T09:43:05.012Z,4.07
2018-02-01T09:45:31.946Z,3.50
2018-02-01T09:47:59.020Z,3.50
2018-02-01T09:50:26.109Z,3.65
2018-02-01T09:52:53.023Z,4.10
2018-02-01T09:55:20.629Z,3.95
2018-02-01T09:57:47.676Z,3.58
2018-02-01T10:00:14.831Z,3.80
2018-02-01T10:02:42.474Z,3.10
2018-02-01T10:05:09.326Z,3.50
2018-02-01T10:07:36.164Z,3.30
2018-02-01T10:10:03.023Z,3.10
2018-02-01T10:12:29.957Z,3.72
2018-02-01T10:14:57.520Z,4.40
2018-02-01T10:17:24.377Z,3.20
2018-02-01T10:19:51.251Z,4.18
2018-02-01T10:22:18.110Z,4.15
2018-02-01T10:24:45.673Z,4.22
2018-02-01T10:27:13.467Z,3.78
2018-02-01T10:29:40.266Z,3.80
2018-02-01T10:32:07.086Z,5.30
2018-02-01T10:34:33.895Z,3.22
2018-02-01T10:37:00.794Z,4.43
2018-02-01T10:39:27.722Z,3.95
2018-02-01T10:41:54.539Z,3.30
2018-02-01T10:44:21.395Z,4.12
2018-02-01T10:46:48.245Z,3.70
2018-02-01T10:49:15.036Z,4.45
2018-02-01T10:51:42.557Z,4.55
2018-02-01T10:54:09.390Z,4.45
2018-02-01T10:56:36.203Z,3.90
2018-02-01T10:59:03.015Z,4.75
2018-02-01T11:01:29.965Z,3.70
2018-02-01T11:03:57.493Z,4.22
2018-02-01T11:06:24.410Z,3.53
2018-02-01T11:08:51.954Z,3.42
2018-02-01T11:11:18.754Z,3.95
2018-02-01T11:13:45.574Z,3.22
2018-02-01T11:16:12.396Z,2.97
2018-02-01T11:18:39.178Z,4.07
2018-02-01T11:21:05.962Z,3.80
2018-02-01T11:23:32.828Z,3.45
2018-02-01T11:25:59.707Z,3.60
2018-02-01T11:28:26.512Z,3.75
2018-02-01T11:30:53.344Z,2.50
2018-02-01T11:33:20.286Z,2.85
2018-02-01T11:35:47.838Z,2.55
2018-02-01T11:38:14.665Z,3.17
2018-02-01T11:40:41.487Z,2.42
2018-02-01T11:43:09.082Z,2.85
2018-02-01T11:45:35.862Z,3.33
2018-02-01T11:48:02.677Z,3.78
2018-02-01T11:50:30.222Z,2.35
2018-02-01T11:52:57.041Z,3.45
2018-02-01T11:55:23.841Z,3.85
2018-02-01T11:57:50.673Z,2.20
2018-02-01T12:00:17.501Z,2.58
2018-02-01T12:02:45.120Z,2.78
2018-02-01T12:05:11.973Z,2.80
2018-02-01T12:07:38.844Z,2.47
2018-02-01T12:10:05.687Z,1.98
2018-02-01T12:12:32.460Z,2.58
2018-02-01T12:15:00.023Z,2.20
2018-02-01T12:17:26.815Z,2.60
2018-02-01T12:19:53.769Z,2.55
2018-02-01T12:22:20.586Z,3.12
2018-02-01T12:24:48.118Z,2.17
2018-02-01T12:27:15.029Z,2.20
2018-02-01T12:29:41.875Z,2.42
2018-02-01T12:32:10.424Z,2.72
2018-02-01T12:34:37.274Z,2.47
2018-02-01T12:37:04.102Z,2.58
2018-02-01T12:39:30.917Z,2.37
2018-02-01T12:41:57.713Z,3.25
2018-02-01T12:44:24.576Z,2.75
2018-02-01T12:46:51.424Z,2.83
2018-02-01T12:49:18.478Z,2.40
2018-02-01T12:51:45.331Z,2.83
2018-02-01T13:14:46.530Z,2.00
2018-02-01T13:17:13.454Z,2.20
2018-02-01T13:19:41.009Z,3.20
2018-02-01T13:22:07.884Z,2.20
2018-02-01T13:24:34.868Z,2.28
2018-02-01T13:27:02.130Z,3.08
2018-02-01T13:29:28.960Z,3.78
2018-02-01T13:50:49.496Z,3.15
2018-02-01T13:53:18.406Z,1.77
2018-02-01T13:55:46.034Z,2.10
2018-02-01T13:58:13.373Z,2.05
2018-02-01T14:00:42.025Z,2.40
2018-02-01T14:43:01.543Z,2.85
2018-02-01T14:45:31.618Z,3.37
2018-02-01T14:48:00.740Z,3.87
2018-02-01T14:50:30.643Z,3.40
2018-02-01T14:52:58.253Z,3.35
2018-02-01T14:55:29.409Z,3.47
2018-02-01T14:57:58.042Z,3.87
2018-02-01T15:03:09.535Z,4.40
2018-02-01T15:05:38.165Z,4.57
2018-02-01T15:08:05.406Z,4.70
2018-02-01T15:10:33.444Z,4.35
2018-02-01T15:13:00.760Z,5.10
2018-02-01T15:15:27.876Z,4.85
2018-02-01T15:17:56.886Z,4.78
2018-02-01T15:20:25.220Z,4.82
2018-02-01T15:25:24.931Z,5.72
2018-02-01T15:28:09.692Z,5.87
2018-02-01T15:41:35.319Z,6.93
2018-02-01T15:46:44.783Z,8.75
2018-02-01T15:49:16.079Z,9.32
2018-02-01T15:51:55.355Z,8.70
2018-02-01T16:08:04.745Z,11.30
2018-02-01T16:10:33.812Z,12.00
2018-02-01T16:13:01.720Z,11.65
2018-02-01T16:15:28.747Z,13.07
2018-02-01T16:17:57.328Z,14.02
2018-02-01T16:20:25.172Z,13.45
2018-02-01T16:22:56.983Z,14.87
2018-02-01T16:25:23.967Z,14.68
2018-02-01T16:27:51.306Z,13.90
2018-02-01T16:30:30.109Z,14.60
2018-02-01T16:32:57.824Z,15.30
2018-02-01T16:35:25.089Z,14.60
2018-02-01T16:37:53.700Z,16.37
2018-02-01T16:40:20.815Z,16.73
2018-02-01T16:42:49.171Z,16.87
2018-02-01T16:50:35.839Z,16.30
2018-02-01T16:53:03.229Z,16.35
2018-02-01T16:55:31.484Z,16.40
2018-02-01T16:57:59.488Z,28.95
2018-02-01T17:00:27.507Z,22.50
2018-02-01T17:02:54.703Z,27.98
2018-02-01T17:05:22.003Z,16.02
2018-02-01T17:07:49.188Z,22.00
2018-02-01T17:10:16.309Z,15.52
2018-02-01T17:12:43.578Z,16.17
2018-02-01T17:15:10.802Z,15.60
2018-02-01T17:17:39.348Z,15.30
2018-02-01T17:20:07.676Z,15.30
2018-02-01T17:22:36.909Z,14.68
2018-02-01T17:25:05.805Z,14.38
2018-02-01T17:27:35.153Z,16.40
2018-02-01T17:30:02.664Z,15.43
2018-02-01T17:32:30.950Z,16.12
2018-02-01T17:35:02.499Z,14.55
2018-02-01T17:37:37.346Z,14.52
2018-02-01T17:49:10.462Z,14.55
2018-02-01T17:51:39.379Z,13.75
2018-02-01T17:54:14.369Z,13.07
2018-02-01T17:59:24.027Z,14.18
2018-02-01T18:01:52.815Z,14.13
2018-02-01T18:04:20.960Z,12.30
2018-02-01T18:06:48.127Z,11.90
2018-02-01T18:09:15.677Z,12.13
2018-02-01T18:11:51.020Z,13.02
2018-02-01T18:14:19.435Z,11.82
2018-02-01T18:16:46.840Z,10.65
2018-02-01T18:19:15.415Z,12.63
2018-02-01T18:21:43.243Z,12.93
2018-02-01T18:24:10.523Z,10.45
2018-02-01T18:26:38.836Z,10.70
2018-02-01T18:40:01.159Z,10.02
2018-02-01T18:42:33.865Z,11.70
2018-02-01T18:45:40.457Z,11.88
2018-02-01T18:48:36.287Z,10.27
2018-02-01T18:53:51.443Z,9.38
2018-02-01T19:03:11.346Z,24.63
2018-02-01T19:14:19.380Z,16.75
2018-02-01T19:39:18.767Z,14.43
2018-02-01T19:41:50.280Z,20.73
2018-02-01T19:44:22.525Z,18.75
2018-02-01T19:46:51.531Z,9.85
2018-02-01T19:49:21.508Z,10.68
2018-02-01T19:51:51.444Z,10.75
2018-02-01T19:54:23.950Z,10.32
2018-02-01T19:57:00.297Z,11.15
2018-02-01T19:59:29.976Z,10.30
2018-02-01T20:01:59.320Z,9.88
2018-02-01T20:04:29.275Z,8.77
2018-02-01T20:06:59.003Z,9.25
2018-02-01T20:09:28.856Z,9.85
2018-02-01T20:11:59.288Z,8.75
2018-02-01T20:18:18.647Z,9.40
2018-02-01T22:28:58.586Z,10.20
2018-02-01T22:31:35.057Z,8.63
2018-02-01T22:34:06.612Z,10.93
2018-02-01T22:36:42.539Z,9.30
2018-02-01T22:39:15.666Z,9.10
2018-02-01T22:41:43.990Z,9.68
2018-02-01T22:44:12.777Z,10.60
2018-02-01T22:46:41.069Z,9.30
2018-02-01T22:49:09.845Z,9.60
2018-02-01T22:51:37.597Z,9.85
2018-02-01T22:54:05.683Z,9.02
2018-02-01T22:56:34.779Z,10.32
2018-02-01T22:59:03.026Z,10.18
2018-02-01T23:01:30.021Z,8.65
2018-02-01T23:03:58.806Z,10.10
2018-02-01T23:06:27.251Z,10.70
2018-02-01T23:08:55.640Z,11.75
2018-02-01T23:11:22.751Z,10.55
2018-02-01T23:13:50.696Z,10.20
2018-02-01T23:16:19.026Z,10.10
2018-02-01T23:18:46.107Z,10.52
2018-02-01T23:21:13.767Z,10.80
2018-02-01T23:23:41.022Z,10.45
2018-02-01T23:26:08.366Z,11.82
2018-02-01T23:28:35.537Z,10.15
2018-02-01T23:31:04.921Z,9.80
2018-02-01T23:33:33.329Z,9.43
2018-02-01T23:36:00.411Z,9.82
2018-02-01T23:38:32.045Z,9.82
2018-02-01T23:41:01.043Z,10.20
2018-02-01T23:43:30.412Z,10.27
2018-02-01T23:46:01.343Z,10.13
2018-02-01T23:48:28.617Z,9.90
2018-02-01T23:50:55.740Z,9.88
2018-02-01T23:53:23.151Z,10.10
2018-02-01T23:55:51.490Z,10.20
2018-02-01T23:58:20.590Z,9.93
